Vienna, North Carolina
Current Conditions -  °F | °C
As of 4:54 PM on Monday 20 Oct 2014 (Local Time) from KINT Reporting Station
Few Clouds Few Clouds  
Wind Chill: 68°   Ceiling: Unl
Heat Index: 68°   Visibility: 10mi
Dew Point: 45°   Wind: 7mph
Humidity: 43%   Direction: NA
Pressure: 29.98"   Gusts: NA
Location:  36.1722°N, 80.3739°W
Report Text: KINT 202054Z VRB06KT 10SM FEW050 20/07 A2998 RMK AO2 SLP150 T02000072 56017
Loading
Personal Weather Stations






























Interactive Weather Map
Tropical Storm Tracking
New forecast layout! Learn more

10-Day Weather Forecast

Advertisements
Track Severe Weather on mobile